Hanstholm, Denmark
Current Conditions -  °F | °C
As of 5:50 PM on Saturday 20 Dec 2014 (Local Time) from EKYT Reporting Station
Few Clouds Few Clouds  
Wind Chill: 33°   Ceiling: Unl
Heat Index: 41°   Visibility: 6mi
Dew Point: 34°   Wind: 14mph
Humidity: 76%   Direction: 300°WNW
Pressure: 29.53"   Gusts: NA
Location:  57.12°N, 8.62°E
Report Text: EKYT 201650Z 30012KT 9999 FEW025 05/01 Q1000
Loading
Personal Weather Stations






























Interactive Weather Map New forecast layout! Learn more

10-Day Weather Forecast

Advertisements
Track Severe Weather on mobile